sensor_id;sensor_type;location;lat;lon;timestamp;P1;durP1;ratioP1;P2;durP2;ratioP2
50291;SDS011;36190;54.980;73.388;2022-10-16T00:00:42;18.15;;;9.57;;
50291;SDS011;36190;54.980;73.388;2022-10-16T00:03:10;18.92;;;9.27;;
50291;SDS011;36190;54.980;73.388;2022-10-16T00:05:40;17.75;;;9.38;;
50291;SDS011;36190;54.980;73.388;2022-10-16T00:08:09;31.85;;;19.70;;
50291;SDS011;36190;54.980;73.388;2022-10-16T00:10:37;38.05;;;22.42;;
50291;SDS011;36190;54.980;73.388;2022-10-16T00:13:05;39.50;;;21.45;;
50291;SDS011;36190;54.980;73.388;2022-10-16T00:15:33;33.22;;;20.40;;
50291;SDS011;36190;54.980;73.388;2022-10-16T00:18:02;33.05;;;18.17;;
50291;SDS011;36190;54.980;73.388;2022-10-16T00:20:30;34.60;;;19.92;;
50291;SDS011;36190;54.980;73.388;2022-10-16T00:23:03;32.80;;;20.02;;
50291;SDS011;36190;54.980;73.388;2022-10-16T00:25:31;31.73;;;19.27;;
50291;SDS011;36190;54.980;73.388;2022-10-16T00:27:59;41.53;;;25.08;;
50291;SDS011;36190;54.980;73.388;2022-10-16T00:30:27;44.08;;;24.70;;
50291;SDS011;36190;54.980;73.388;2022-10-16T00:32:54;36.58;;;20.42;;
50291;SDS011;36190;54.980;73.388;2022-10-16T00:35:21;45.90;;;28.95;;
50291;SDS011;36190;54.980;73.388;2022-10-16T00:37:49;48.47;;;29.60;;
50291;SDS011;36190;54.980;73.388;2022-10-16T00:40:18;43.28;;;23.98;;
50291;SDS011;36190;54.980;73.388;2022-10-16T00:42:45;37.58;;;20.95;;
50291;SDS011;36190;54.980;73.388;2022-10-16T00:45:12;29.95;;;18.95;;
50291;SDS011;36190;54.980;73.388;2022-10-16T00:47:40;34.42;;;19.80;;
50291;SDS011;36190;54.980;73.388;2022-10-16T00:50:13;33.22;;;18.27;;
50291;SDS011;36190;54.980;73.388;2022-10-16T00:52:46;25.77;;;15.63;;
50291;SDS011;36190;54.980;73.388;2022-10-16T00:55:15;26.52;;;15.73;;
50291;SDS011;36190;54.980;73.388;2022-10-16T00:57:45;27.80;;;14.98;;
50291;SDS011;36190;54.980;73.388;2022-10-16T01:00:14;35.38;;;20.05;;
50291;SDS011;36190;54.980;73.388;2022-10-16T01:02:44;36.95;;;22.08;;
50291;SDS011;36190;54.980;73.388;2022-10-16T01:05:11;31.85;;;17.67;;
50291;SDS011;36190;54.980;73.388;2022-10-16T01:07:41;22.33;;;12.15;;
50291;SDS011;36190;54.980;73.388;2022-10-16T01:10:24;20.30;;;10.48;;
50291;SDS011;36190;54.980;73.388;2022-10-16T01:12:59;21.02;;;10.02;;
50291;SDS011;36190;54.980;73.388;2022-10-16T01:15:32;25.77;;;14.15;;
50291;SDS011;36190;54.980;73.388;2022-10-16T01:18:03;29.70;;;17.67;;
50291;SDS011;36190;54.980;73.388;2022-10-16T01:20:35;30.88;;;19.25;;
50291;SDS011;36190;54.980;73.388;2022-10-16T01:23:10;31.05;;;17.77;;
50291;SDS011;36190;54.980;73.388;2022-10-16T01:25:52;24.85;;;12.75;;
50291;SDS011;36190;54.980;73.388;2022-10-16T01:28:32;18.42;;;9.50;;
50291;SDS011;36190;54.980;73.388;2022-10-16T01:31:06;21.77;;;11.02;;
50291;SDS011;36190;54.980;73.388;2022-10-16T01:33:37;28.42;;;14.93;;
50291;SDS011;36190;54.980;73.388;2022-10-16T01:36:10;28.73;;;15.10;;
50291;SDS011;36190;54.980;73.388;2022-10-16T01:38:40;32.40;;;17.30;;
50291;SDS011;36190;54.980;73.388;2022-10-16T01:41:11;29.27;;;16.48;;
50291;SDS011;36190;54.980;73.388;2022-10-16T01:43:45;30.58;;;16.73;;
50291;SDS011;36190;54.980;73.388;2022-10-16T01:46:17;22.10;;;13.07;;
50291;SDS011;36190;54.980;73.388;2022-10-16T01:48:47;20.58;;;9.40;;
50291;SDS011;36190;54.980;73.388;2022-10-16T01:51:17;17.13;;;7.13;;
50291;SDS011;36190;54.980;73.388;2022-10-16T01:53:47;16.83;;;6.13;;
50291;SDS011;36190;54.980;73.388;2022-10-16T01:56:18;12.77;;;6.25;;
50291;SDS011;36190;54.980;73.388;2022-10-16T01:58:52;14.48;;;6.45;;
50291;SDS011;36190;54.980;73.388;2022-10-16T02:01:23;12.18;;;6.57;;
50291;SDS011;36190;54.980;73.388;2022-10-16T02:03:54;16.13;;;6.70;;
50291;SDS011;36190;54.980;73.388;2022-10-16T02:06:25;13.00;;;6.35;;
50291;SDS011;36190;54.980;73.388;2022-10-16T02:08:53;12.30;;;6.43;;
50291;SDS011;36190;54.980;73.388;2022-10-16T02:11:20;18.02;;;7.38;;
50291;SDS011;36190;54.980;73.388;2022-10-16T02:13:48;15.57;;;7.18;;
50291;SDS011;36190;54.980;73.388;2022-10-16T02:18:58;13.82;;;7.45;;
50291;SDS011;36190;54.980;73.388;2022-10-16T02:21:26;12.25;;;7.30;;
50291;SDS011;36190;54.980;73.388;2022-10-16T02:24:00;13.48;;;7.15;;
50291;SDS011;36190;54.980;73.388;2022-10-16T02:26:35;14.50;;;7.03;;
50291;SDS011;36190;54.980;73.388;2022-10-16T02:29:12;16.00;;;7.35;;
50291;SDS011;36190;54.980;73.388;2022-10-16T02:31:46;14.02;;;7.28;;
50291;SDS011;36190;54.980;73.388;2022-10-16T02:34:16;14.70;;;7.57;;
50291;SDS011;36190;54.980;73.388;2022-10-16T02:36:44;16.92;;;7.53;;
50291;SDS011;36190;54.980;73.388;2022-10-16T02:39:14;14.45;;;7.47;;
50291;SDS011;36190;54.980;73.388;2022-10-16T02:41:42;15.15;;;7.57;;
50291;SDS011;36190;54.980;73.388;2022-10-16T02:44:11;13.15;;;7.13;;
50291;SDS011;36190;54.980;73.388;2022-10-16T02:46:39;14.27;;;8.23;;
50291;SDS011;36190;54.980;73.388;2022-10-16T02:49:06;16.38;;;7.72;;
50291;SDS011;36190;54.980;73.388;2022-10-16T02:51:33;17.20;;;8.73;;
50291;SDS011;36190;54.980;73.388;2022-10-16T02:54:01;21.75;;;9.65;;
50291;SDS011;36190;54.980;73.388;2022-10-16T02:56:29;24.48;;;12.25;;
50291;SDS011;36190;54.980;73.388;2022-10-16T02:58:56;20.67;;;11.07;;
50291;SDS011;36190;54.980;73.388;2022-10-16T03:01:25;18.42;;;9.30;;
50291;SDS011;36190;54.980;73.388;2022-10-16T03:03:52;17.50;;;8.85;;
50291;SDS011;36190;54.980;73.388;2022-10-16T03:06:20;17.58;;;10.18;;
50291;SDS011;36190;54.980;73.388;2022-10-16T03:08:47;18.50;;;9.52;;
50291;SDS011;36190;54.980;73.388;2022-10-16T03:11:14;15.95;;;9.75;;
50291;SDS011;36190;54.980;73.388;2022-10-16T03:13:42;19.95;;;10.48;;
50291;SDS011;36190;54.980;73.388;2022-10-16T03:16:09;21.58;;;10.27;;
50291;SDS011;36190;54.980;73.388;2022-10-16T03:18:38;16.65;;;9.60;;
50291;SDS011;36190;54.980;73.388;2022-10-16T03:21:05;19.65;;;10.48;;
50291;SDS011;36190;54.980;73.388;2022-10-16T03:23:33;20.55;;;10.25;;
50291;SDS011;36190;54.980;73.388;2022-10-16T03:26:00;19.17;;;9.98;;
50291;SDS011;36190;54.980;73.388;2022-10-16T03:28:28;21.27;;;10.75;;
50291;SDS011;36190;54.980;73.388;2022-10-16T03:30:55;26.67;;;13.68;;
50291;SDS011;36190;54.980;73.388;2022-10-16T03:33:22;30.10;;;14.52;;
50291;SDS011;36190;54.980;73.388;2022-10-16T03:35:54;33.83;;;15.57;;
50291;SDS011;36190;54.980;73.388;2022-10-16T03:38:22;36.35;;;18.48;;
50291;SDS011;36190;54.980;73.388;2022-10-16T03:40:49;46.13;;;21.15;;
50291;SDS011;36190;54.980;73.388;2022-10-16T03:43:16;43.58;;;22.50;;
50291;SDS011;36190;54.980;73.388;2022-10-16T03:45:44;46.70;;;23.48;;
50291;SDS011;36190;54.980;73.388;2022-10-16T03:48:11;43.67;;;23.30;;
50291;SDS011;36190;54.980;73.388;2022-10-16T03:50:38;44.03;;;20.88;;
50291;SDS011;36190;54.980;73.388;2022-10-16T03:53:07;40.47;;;19.00;;
50291;SDS011;36190;54.980;73.388;2022-10-16T03:55:35;36.97;;;18.13;;
50291;SDS011;36190;54.980;73.388;2022-10-16T03:58:02;26.08;;;13.35;;
50291;SDS011;36190;54.980;73.388;2022-10-16T04:00:30;30.13;;;12.38;;
50291;SDS011;36190;54.980;73.388;2022-10-16T04:02:57;18.27;;;10.20;;
50291;SDS011;36190;54.980;73.388;2022-10-16T04:05:24;23.70;;;11.23;;
50291;SDS011;36190;54.980;73.388;2022-10-16T04:07:52;24.98;;;11.40;;
50291;SDS011;36190;54.980;73.388;2022-10-16T04:10:21;19.95;;;10.70;;
50291;SDS011;36190;54.980;73.388;2022-10-16T04:12:49;30.00;;;9.68;;
50291;SDS011;36190;54.980;73.388;2022-10-16T04:15:16;23.92;;;10.40;;
50291;SDS011;36190;54.980;73.388;2022-10-16T04:17:43;24.02;;;10.23;;
50291;SDS011;36190;54.980;73.388;2022-10-16T04:20:11;23.48;;;10.20;;
50291;SDS011;36190;54.980;73.388;2022-10-16T04:22:38;19.55;;;10.63;;
50291;SDS011;36190;54.980;73.388;2022-10-16T04:25:05;20.42;;;10.70;;
50291;SDS011;36190;54.980;73.388;2022-10-16T04:27:35;28.02;;;12.35;;
50291;SDS011;36190;54.980;73.388;2022-10-16T04:30:02;23.52;;;10.45;;
50291;SDS011;36190;54.980;73.388;2022-10-16T04:32:30;24.23;;;12.00;;
50291;SDS011;36190;54.980;73.388;2022-10-16T04:34:58;20.67;;;11.73;;
50291;SDS011;36190;54.980;73.388;2022-10-16T04:37:25;27.58;;;13.10;;
50291;SDS011;36190;54.980;73.388;2022-10-16T04:39:53;28.83;;;12.57;;
50291;SDS011;36190;54.980;73.388;2022-10-16T04:42:20;24.00;;;11.68;;
50291;SDS011;36190;54.980;73.388;2022-10-16T04:44:49;21.55;;;10.43;;
50291;SDS011;36190;54.980;73.388;2022-10-16T04:47:17;22.25;;;10.55;;
50291;SDS011;36190;54.980;73.388;2022-10-16T04:49:44;24.33;;;10.38;;
50291;SDS011;36190;54.980;73.388;2022-10-16T04:52:12;28.77;;;9.93;;
50291;SDS011;36190;54.980;73.388;2022-10-16T04:54:39;25.85;;;10.55;;
50291;SDS011;36190;54.980;73.388;2022-10-16T04:57:06;24.45;;;10.02;;
50291;SDS011;36190;54.980;73.388;2022-10-16T04:59:34;22.17;;;10.82;;
50291;SDS011;36190;54.980;73.388;2022-10-16T05:02:02;22.52;;;11.05;;
50291;SDS011;36190;54.980;73.388;2022-10-16T05:04:30;23.42;;;10.18;;
50291;SDS011;36190;54.980;73.388;2022-10-16T05:06:57;19.92;;;10.68;;
50291;SDS011;36190;54.980;73.388;2022-10-16T05:09:25;22.15;;;10.27;;
50291;SDS011;36190;54.980;73.388;2022-10-16T05:11:52;19.15;;;9.75;;
50291;SDS011;36190;54.980;73.388;2022-10-16T05:14:19;19.75;;;9.40;;
50291;SDS011;36190;54.980;73.388;2022-10-16T05:16:47;24.40;;;9.07;;
50291;SDS011;36190;54.980;73.388;2022-10-16T05:19:16;15.55;;;8.20;;
50291;SDS011;36190;54.980;73.388;2022-10-16T05:21:43;17.80;;;7.78;;
50291;SDS011;36190;54.980;73.388;2022-10-16T05:24:10;22.30;;;7.68;;
50291;SDS011;36190;54.980;73.388;2022-10-16T05:26:38;17.15;;;8.43;;
50291;SDS011;36190;54.980;73.388;2022-10-16T05:29:05;16.23;;;7.60;;
50291;SDS011;36190;54.980;73.388;2022-10-16T05:31:32;16.27;;;7.63;;
50291;SDS011;36190;54.980;73.388;2022-10-16T05:34:00;24.25;;;9.18;;
50291;SDS011;36190;54.980;73.388;2022-10-16T05:36:29;21.33;;;8.73;;
50291;SDS011;36190;54.980;73.388;2022-10-16T05:38:56;17.45;;;8.15;;
50291;SDS011;36190;54.980;73.388;2022-10-16T05:41:24;16.45;;;8.55;;
50291;SDS011;36190;54.980;73.388;2022-10-16T05:43:51;22.35;;;8.48;;
50291;SDS011;36190;54.980;73.388;2022-10-16T05:46:19;18.80;;;9.02;;
50291;SDS011;36190;54.980;73.388;2022-10-16T05:48:46;22.10;;;9.10;;
50291;SDS011;36190;54.980;73.388;2022-10-16T05:51:14;17.08;;;8.77;;
50291;SDS011;36190;54.980;73.388;2022-10-16T05:53:43;16.10;;;9.05;;
50291;SDS011;36190;54.980;73.388;2022-10-16T05:56:10;25.10;;;10.13;;
50291;SDS011;36190;54.980;73.388;2022-10-16T05:58:39;23.58;;;10.07;;
50291;SDS011;36190;54.980;73.388;2022-10-16T06:01:08;21.80;;;11.00;;
50291;SDS011;36190;54.980;73.388;2022-10-16T06:03:37;25.92;;;10.77;;
50291;SDS011;36190;54.980;73.388;2022-10-16T06:06:07;20.83;;;10.18;;
50291;SDS011;36190;54.980;73.388;2022-10-16T06:08:36;24.98;;;10.07;;
50291;SDS011;36190;54.980;73.388;2022-10-16T06:11:06;19.33;;;9.52;;
50291;SDS011;36190;54.980;73.388;2022-10-16T06:13:34;21.55;;;9.95;;
50291;SDS011;36190;54.980;73.388;2022-10-16T06:16:02;20.88;;;9.52;;
50291;SDS011;36190;54.980;73.388;2022-10-16T06:18:30;18.17;;;9.35;;
50291;SDS011;36190;54.980;73.388;2022-10-16T06:20:57;16.02;;;8.30;;
50291;SDS011;36190;54.980;73.388;2022-10-16T06:23:25;21.35;;;9.98;;
50291;SDS011;36190;54.980;73.388;2022-10-16T06:25:54;18.00;;;9.23;;
50291;SDS011;36190;54.980;73.388;2022-10-16T06:28:32;18.42;;;9.18;;
50291;SDS011;36190;54.980;73.388;2022-10-16T06:31:00;21.52;;;8.82;;
50291;SDS011;36190;54.980;73.388;2022-10-16T06:33:28;18.80;;;9.43;;
50291;SDS011;36190;54.980;73.388;2022-10-16T06:35:59;16.65;;;9.77;;
50291;SDS011;36190;54.980;73.388;2022-10-16T06:38:27;17.48;;;9.50;;
50291;SDS011;36190;54.980;73.388;2022-10-16T06:40:55;21.23;;;9.55;;
50291;SDS011;36190;54.980;73.388;2022-10-16T06:43:23;21.15;;;10.10;;
50291;SDS011;36190;54.980;73.388;2022-10-16T06:45:51;17.20;;;9.57;;
50291;SDS011;36190;54.980;73.388;2022-10-16T06:48:19;19.63;;;10.02;;
50291;SDS011;36190;54.980;73.388;2022-10-16T06:50:54;21.23;;;9.23;;
50291;SDS011;36190;54.980;73.388;2022-10-16T06:53:23;18.00;;;8.35;;
50291;SDS011;36190;54.980;73.388;2022-10-16T06:55:51;14.30;;;7.65;;
50291;SDS011;36190;54.980;73.388;2022-10-16T06:58:18;14.07;;;6.93;;
50291;SDS011;36190;54.980;73.388;2022-10-16T07:00:47;12.77;;;6.35;;
50291;SDS011;36190;54.980;73.388;2022-10-16T07:03:15;19.48;;;6.28;;
50291;SDS011;36190;54.980;73.388;2022-10-16T07:05:42;11.82;;;5.18;;
50291;SDS011;36190;54.980;73.388;2022-10-16T07:08:10;12.35;;;5.15;;
50291;SDS011;36190;54.980;73.388;2022-10-16T07:10:37;10.15;;;4.97;;
50291;SDS011;36190;54.980;73.388;2022-10-16T07:13:05;11.20;;;5.78;;
50291;SDS011;36190;54.980;73.388;2022-10-16T07:15:33;11.40;;;5.63;;
50291;SDS011;36190;54.980;73.388;2022-10-16T07:18:02;14.05;;;5.97;;
50291;SDS011;36190;54.980;73.388;2022-10-16T07:20:29;13.80;;;5.63;;
50291;SDS011;36190;54.980;73.388;2022-10-16T07:22:56;11.48;;;5.40;;
50291;SDS011;36190;54.980;73.388;2022-10-16T07:25:24;12.43;;;5.38;;
50291;SDS011;36190;54.980;73.388;2022-10-16T07:27:51;14.65;;;6.32;;
50291;SDS011;36190;54.980;73.388;2022-10-16T07:30:21;14.18;;;6.07;;
50291;SDS011;36190;54.980;73.388;2022-10-16T07:32:48;14.85;;;6.20;;
50291;SDS011;36190;54.980;73.388;2022-10-16T07:35:17;13.18;;;5.97;;
50291;SDS011;36190;54.980;73.388;2022-10-16T07:37:45;11.48;;;4.88;;
50291;SDS011;36190;54.980;73.388;2022-10-16T07:40:12;13.30;;;5.43;;
50291;SDS011;36190;54.980;73.388;2022-10-16T07:42:40;10.93;;;5.15;;
50291;SDS011;36190;54.980;73.388;2022-10-16T07:45:07;11.85;;;5.20;;
50291;SDS011;36190;54.980;73.388;2022-10-16T07:47:35;10.32;;;5.15;;
50291;SDS011;36190;54.980;73.388;2022-10-16T07:50:03;11.43;;;5.20;;
50291;SDS011;36190;54.980;73.388;2022-10-16T07:52:32;12.32;;;5.78;;
50291;SDS011;36190;54.980;73.388;2022-10-16T07:54:59;13.07;;;6.13;;
50291;SDS011;36190;54.980;73.388;2022-10-16T07:57:27;16.60;;;6.82;;
50291;SDS011;36190;54.980;73.388;2022-10-16T07:59:54;18.83;;;6.82;;
50291;SDS011;36190;54.980;73.388;2022-10-16T08:02:21;22.23;;;8.25;;
50291;SDS011;36190;54.980;73.388;2022-10-16T08:04:49;20.33;;;8.43;;
50291;SDS011;36190;54.980;73.388;2022-10-16T08:07:16;22.88;;;7.70;;
50291;SDS011;36190;54.980;73.388;2022-10-16T08:09:48;19.50;;;7.25;;
50291;SDS011;36190;54.980;73.388;2022-10-16T08:12:16;22.08;;;7.30;;
50291;SDS011;36190;54.980;73.388;2022-10-16T08:14:44;19.10;;;7.28;;
50291;SDS011;36190;54.980;73.388;2022-10-16T08:17:13;35.80;;;9.10;;
50291;SDS011;36190;54.980;73.388;2022-10-16T08:19:43;14.48;;;7.57;;
50291;SDS011;36190;54.980;73.388;2022-10-16T08:22:11;20.85;;;7.57;;
50291;SDS011;36190;54.980;73.388;2022-10-16T08:24:38;17.30;;;7.55;;
50291;SDS011;36190;54.980;73.388;2022-10-16T08:27:07;17.88;;;8.43;;
50291;SDS011;36190;54.980;73.388;2022-10-16T08:29:35;15.43;;;7.78;;
50291;SDS011;36190;54.980;73.388;2022-10-16T08:32:03;20.55;;;8.45;;
50291;SDS011;36190;54.980;73.388;2022-10-16T08:34:31;15.02;;;7.82;;
50291;SDS011;36190;54.980;73.388;2022-10-16T08:36:58;16.27;;;8.00;;
50291;SDS011;36190;54.980;73.388;2022-10-16T08:39:26;17.20;;;8.13;;
50291;SDS011;36190;54.980;73.388;2022-10-16T08:42:00;18.08;;;8.13;;
50291;SDS011;36190;54.980;73.388;2022-10-16T08:44:58;20.52;;;7.70;;
50291;SDS011;36190;54.980;73.388;2022-10-16T08:47:47;25.33;;;8.05;;
50291;SDS011;36190;54.980;73.388;2022-10-16T08:50:21;20.38;;;9.00;;
50291;SDS011;36190;54.980;73.388;2022-10-16T08:52:52;15.57;;;8.05;;
50291;SDS011;36190;54.980;73.388;2022-10-16T08:55:29;17.20;;;9.05;;
50291;SDS011;36190;54.980;73.388;2022-10-16T08:58:01;18.45;;;9.20;;
50291;SDS011;36190;54.980;73.388;2022-10-16T09:00:36;16.95;;;8.82;;
50291;SDS011;36190;54.980;73.388;2022-10-16T09:03:05;17.80;;;9.80;;
50291;SDS011;36190;54.980;73.388;2022-10-16T09:05:49;19.08;;;8.85;;
50291;SDS011;36190;54.980;73.388;2022-10-16T09:08:27;20.58;;;8.35;;
50291;SDS011;36190;54.980;73.388;2022-10-16T09:10:59;15.45;;;8.20;;
50291;SDS011;36190;54.980;73.388;2022-10-16T09:13:39;14.38;;;7.53;;
50291;SDS011;36190;54.980;73.388;2022-10-16T09:16:14;16.45;;;7.35;;
50291;SDS011;36190;54.980;73.388;2022-10-16T09:18:49;15.38;;;7.35;;
50291;SDS011;36190;54.980;73.388;2022-10-16T09:21:21;14.35;;;6.57;;
50291;SDS011;36190;54.980;73.388;2022-10-16T09:23:51;13.48;;;6.93;;
50291;SDS011;36190;54.980;73.388;2022-10-16T09:26:18;14.40;;;6.60;;
50291;SDS011;36190;54.980;73.388;2022-10-16T09:28:48;14.68;;;6.82;;
50291;SDS011;36190;54.980;73.388;2022-10-16T09:31:20;18.55;;;6.65;;
50291;SDS011;36190;54.980;73.388;2022-10-16T09:33:50;14.15;;;6.53;;
50291;SDS011;36190;54.980;73.388;2022-10-16T09:36:20;17.52;;;7.28;;
50291;SDS011;36190;54.980;73.388;2022-10-16T09:38:50;13.05;;;6.47;;
50291;SDS011;36190;54.980;73.388;2022-10-16T09:41:29;16.48;;;6.43;;
50291;SDS011;36190;54.980;73.388;2022-10-16T09:43:59;13.82;;;6.00;;
50291;SDS011;36190;54.980;73.388;2022-10-16T09:46:28;18.17;;;6.28;;
50291;SDS011;36190;54.980;73.388;2022-10-16T09:48:57;18.92;;;7.30;;
50291;SDS011;36190;54.980;73.388;2022-10-16T09:51:27;14.93;;;8.38;;
50291;SDS011;36190;54.980;73.388;2022-10-16T09:53:56;14.00;;;7.30;;
50291;SDS011;36190;54.980;73.388;2022-10-16T09:56:26;16.63;;;7.47;;
50291;SDS011;36190;54.980;73.388;2022-10-16T09:58:55;12.90;;;6.60;;
50291;SDS011;36190;54.980;73.388;2022-10-16T10:01:26;13.90;;;6.65;;
50291;SDS011;36190;54.980;73.388;2022-10-16T10:03:58;13.82;;;7.07;;
50291;SDS011;36190;54.980;73.388;2022-10-16T10:06:28;13.00;;;6.43;;
50291;SDS011;36190;54.980;73.388;2022-10-16T10:08:59;14.40;;;6.95;;
50291;SDS011;36190;54.980;73.388;2022-10-16T10:11:36;11.48;;;5.43;;
50291;SDS011;36190;54.980;73.388;2022-10-16T10:14:09;10.68;;;4.85;;
50291;SDS011;36190;54.980;73.388;2022-10-16T10:16:52;11.85;;;4.95;;
50291;SDS011;36190;54.980;73.388;2022-10-16T10:19:43;14.13;;;5.82;;
50291;SDS011;36190;54.980;73.388;2022-10-16T10:25:14;14.68;;;7.80;;
50291;SDS011;36190;54.980;73.388;2022-10-16T10:30:45;12.10;;;6.53;;
50291;SDS011;36190;54.980;73.388;2022-10-16T10:33:25;14.48;;;7.10;;
50291;SDS011;36190;54.980;73.388;2022-10-16T10:36:00;16.23;;;7.65;;
50291;SDS011;36190;54.980;73.388;2022-10-16T10:38:39;17.65;;;7.93;;
50291;SDS011;36190;54.980;73.388;2022-10-16T10:44:13;18.65;;;8.27;;
50291;SDS011;36190;54.980;73.388;2022-10-16T10:46:49;20.40;;;9.18;;
50291;SDS011;36190;54.980;73.388;2022-10-16T10:49:33;16.08;;;8.63;;
50291;SDS011;36190;54.980;73.388;2022-10-16T10:52:19;17.27;;;7.65;;
50291;SDS011;36190;54.980;73.388;2022-10-16T10:55:03;15.18;;;7.57;;
50291;SDS011;36190;54.980;73.388;2022-10-16T10:57:42;14.15;;;7.25;;
50291;SDS011;36190;54.980;73.388;2022-10-16T11:00:28;12.52;;;5.97;;
50291;SDS011;36190;54.980;73.388;2022-10-16T11:03:08;16.85;;;7.45;;
50291;SDS011;36190;54.980;73.388;2022-10-16T11:05:45;22.23;;;9.98;;
50291;SDS011;36190;54.980;73.388;2022-10-16T11:08:17;18.45;;;9.13;;
50291;SDS011;36190;54.980;73.388;2022-10-16T11:10:49;23.45;;;10.35;;
50291;SDS011;36190;54.980;73.388;2022-10-16T11:13:21;22.98;;;9.63;;
50291;SDS011;36190;54.980;73.388;2022-10-16T11:15:56;18.55;;;9.68;;
50291;SDS011;36190;54.980;73.388;2022-10-16T11:18:28;22.48;;;8.57;;
50291;SDS011;36190;54.980;73.388;2022-10-16T11:21:02;13.48;;;7.15;;
50291;SDS011;36190;54.980;73.388;2022-10-16T11:23:36;15.02;;;8.30;;
50291;SDS011;36190;54.980;73.388;2022-10-16T11:26:11;19.92;;;9.38;;
50291;SDS011;36190;54.980;73.388;2022-10-16T11:28:42;18.98;;;8.48;;
50291;SDS011;36190;54.980;73.388;2022-10-16T11:31:15;18.98;;;9.57;;
50291;SDS011;36190;54.980;73.388;2022-10-16T11:33:49;18.70;;;10.77;;
50291;SDS011;36190;54.980;73.388;2022-10-16T11:36:27;17.67;;;9.88;;
50291;SDS011;36190;54.980;73.388;2022-10-16T11:39:02;22.40;;;12.35;;
50291;SDS011;36190;54.980;73.388;2022-10-16T11:41:41;20.60;;;13.38;;
50291;SDS011;36190;54.980;73.388;2022-10-16T11:44:18;24.08;;;15.25;;
50291;SDS011;36190;54.980;73.388;2022-10-16T11:46:58;22.92;;;13.73;;
50291;SDS011;36190;54.980;73.388;2022-10-16T11:49:32;19.90;;;11.55;;
50291;SDS011;36190;54.980;73.388;2022-10-16T11:52:05;17.08;;;10.68;;
50291;SDS011;36190;54.980;73.388;2022-10-16T11:54:39;17.52;;;10.25;;
50291;SDS011;36190;54.980;73.388;2022-10-16T11:57:16;20.48;;;12.15;;
50291;SDS011;36190;54.980;73.388;2022-10-16T11:59:48;19.45;;;13.18;;
50291;SDS011;36190;54.980;73.388;2022-10-16T12:05:11;27.25;;;15.07;;
50291;SDS011;36190;54.980;73.388;2022-10-16T12:07:48;23.88;;;15.50;;
50291;SDS011;36190;54.980;73.388;2022-10-16T12:10:25;28.58;;;16.90;;
50291;SDS011;36190;54.980;73.388;2022-10-16T12:12:56;29.23;;;16.85;;
50291;SDS011;36190;54.980;73.388;2022-10-16T12:15:25;27.55;;;17.20;;
50291;SDS011;36190;54.980;73.388;2022-10-16T12:17:53;28.23;;;16.95;;
50291;SDS011;36190;54.980;73.388;2022-10-16T12:20:23;27.05;;;16.95;;
50291;SDS011;36190;54.980;73.388;2022-10-16T12:22:55;33.47;;;17.50;;
50291;SDS011;36190;54.980;73.388;2022-10-16T12:25:25;26.40;;;15.88;;
50291;SDS011;36190;54.980;73.388;2022-10-16T12:27:55;31.75;;;17.23;;
50291;SDS011;36190;54.980;73.388;2022-10-16T12:30:25;35.05;;;18.40;;
50291;SDS011;36190;54.980;73.388;2022-10-16T12:32:55;31.75;;;17.52;;
50291;SDS011;36190;54.980;73.388;2022-10-16T12:35:25;27.65;;;15.98;;
50291;SDS011;36190;54.980;73.388;2022-10-16T12:38:03;19.92;;;11.38;;
50291;SDS011;36190;54.980;73.388;2022-10-16T12:40:33;18.48;;;9.95;;
50291;SDS011;36190;54.980;73.388;2022-10-16T12:43:23;20.25;;;10.98;;
50291;SDS011;36190;54.980;73.388;2022-10-16T12:46:00;22.63;;;12.57;;
50291;SDS011;36190;54.980;73.388;2022-10-16T12:48:29;23.48;;;13.20;;
50291;SDS011;36190;54.980;73.388;2022-10-16T12:50:56;25.30;;;12.80;;
50291;SDS011;36190;54.980;73.388;2022-10-16T12:53:26;30.70;;;13.20;;
50291;SDS011;36190;54.980;73.388;2022-10-16T12:55:56;27.08;;;14.27;;
50291;SDS011;36190;54.980;73.388;2022-10-16T12:58:39;33.90;;;15.88;;
50291;SDS011;36190;54.980;73.388;2022-10-16T13:01:26;29.95;;;15.20;;
50291;SDS011;36190;54.980;73.388;2022-10-16T13:04:08;32.30;;;17.88;;
50291;SDS011;36190;54.980;73.388;2022-10-16T13:06:55;34.17;;;16.50;;
50291;SDS011;36190;54.980;73.388;2022-10-16T13:09:37;25.45;;;15.15;;
50291;SDS011;36190;54.980;73.388;2022-10-16T13:12:15;25.83;;;13.80;;
50291;SDS011;36190;54.980;73.388;2022-10-16T13:14:57;26.25;;;13.32;;
50291;SDS011;36190;54.980;73.388;2022-10-16T13:17:34;40.65;;;19.90;;
50291;SDS011;36190;54.980;73.388;2022-10-16T13:20:12;41.67;;;19.52;;
50291;SDS011;36190;54.980;73.388;2022-10-16T13:22:47;52.03;;;30.45;;
50291;SDS011;36190;54.980;73.388;2022-10-16T13:25:27;41.05;;;24.73;;
50291;SDS011;36190;54.980;73.388;2022-10-16T13:28:02;39.78;;;25.40;;
50291;SDS011;36190;54.980;73.388;2022-10-16T13:30:31;35.45;;;23.63;;
50291;SDS011;36190;54.980;73.388;2022-10-16T13:33:03;32.25;;;18.60;;
50291;SDS011;36190;54.980;73.388;2022-10-16T13:35:34;33.10;;;18.50;;
50291;SDS011;36190;54.980;73.388;2022-10-16T13:38:03;26.05;;;14.35;;
50291;SDS011;36190;54.980;73.388;2022-10-16T13:40:53;24.05;;;14.57;;
50291;SDS011;36190;54.980;73.388;2022-10-16T13:43:23;22.75;;;13.20;;
50291;SDS011;36190;54.980;73.388;2022-10-16T13:45:58;23.63;;;13.25;;
50291;SDS011;36190;54.980;73.388;2022-10-16T13:48:27;25.80;;;15.25;;
50291;SDS011;36190;54.980;73.388;2022-10-16T13:50:58;31.92;;;19.33;;
50291;SDS011;36190;54.980;73.388;2022-10-16T13:53:31;36.20;;;22.67;;
50291;SDS011;36190;54.980;73.388;2022-10-16T13:56:01;34.35;;;22.02;;
50291;SDS011;36190;54.980;73.388;2022-10-16T13:58:30;39.45;;;22.88;;
50291;SDS011;36190;54.980;73.388;2022-10-16T14:00:58;28.23;;;15.43;;
50291;SDS011;36190;54.980;73.388;2022-10-16T14:03:27;24.75;;;14.38;;
50291;SDS011;36190;54.980;73.388;2022-10-16T14:05:57;29.90;;;17.98;;
50291;SDS011;36190;54.980;73.388;2022-10-16T14:08:28;28.90;;;17.15;;
50291;SDS011;36190;54.980;73.388;2022-10-16T14:10:57;23.77;;;14.00;;
50291;SDS011;36190;54.980;73.388;2022-10-16T14:13:30;20.02;;;12.00;;
50291;SDS011;36190;54.980;73.388;2022-10-16T14:18:30;25.98;;;13.45;;
50291;SDS011;36190;54.980;73.388;2022-10-16T14:21:02;26.35;;;13.88;;
50291;SDS011;36190;54.980;73.388;2022-10-16T14:23:31;30.33;;;13.57;;
50291;SDS011;36190;54.980;73.388;2022-10-16T14:26:13;29.52;;;11.90;;
50291;SDS011;36190;54.980;73.388;2022-10-16T14:28:45;20.55;;;10.95;;
50291;SDS011;36190;54.980;73.388;2022-10-16T14:31:24;19.35;;;11.40;;
50291;SDS011;36190;54.980;73.388;2022-10-16T14:33:53;23.42;;;11.30;;
50291;SDS011;36190;54.980;73.388;2022-10-16T14:36:21;23.00;;;12.35;;
50291;SDS011;36190;54.980;73.388;2022-10-16T14:38:53;26.98;;;15.40;;
50291;SDS011;36190;54.980;73.388;2022-10-16T14:41:25;26.25;;;14.05;;
50291;SDS011;36190;54.980;73.388;2022-10-16T14:43:55;21.35;;;13.13;;
50291;SDS011;36190;54.980;73.388;2022-10-16T14:46:28;18.80;;;10.90;;
50291;SDS011;36190;54.980;73.388;2022-10-16T14:48:59;18.65;;;11.25;;
50291;SDS011;36190;54.980;73.388;2022-10-16T14:51:30;20.70;;;11.82;;
50291;SDS011;36190;54.980;73.388;2022-10-16T14:53:57;21.50;;;12.68;;